sensor_id;sensor_type;location;lat;lon;timestamp;P1;durP1;ratioP1;P2;durP2;ratioP2
58468;SDS011;44257;44.804;10.220;2023-07-20T00:01:28;8.00;;;3.97;;
58468;SDS011;44257;44.804;10.220;2023-07-20T00:03:54;8.90;;;3.72;;
58468;SDS011;44257;44.804;10.220;2023-07-20T00:06:20;14.95;;;4.20;;
58468;SDS011;44257;44.804;10.220;2023-07-20T00:08:47;9.15;;;3.85;;
58468;SDS011;44257;44.804;10.220;2023-07-20T00:11:13;12.27;;;4.00;;
58468;SDS011;44257;44.804;10.220;2023-07-20T00:13:39;6.78;;;3.15;;
58468;SDS011;44257;44.804;10.220;2023-07-20T00:16:06;12.43;;;3.63;;
58468;SDS011;44257;44.804;10.220;2023-07-20T00:18:32;7.78;;;3.30;;
58468;SDS011;44257;44.804;10.220;2023-07-20T00:21:01;6.38;;;2.97;;
58468;SDS011;44257;44.804;10.220;2023-07-20T00:23:27;6.15;;;2.78;;
58468;SDS011;44257;44.804;10.220;2023-07-20T00:25:53;7.35;;;3.15;;
58468;SDS011;44257;44.804;10.220;2023-07-20T00:28:19;9.55;;;3.40;;
58468;SDS011;44257;44.804;10.220;2023-07-20T00:30:47;6.40;;;2.97;;
58468;SDS011;44257;44.804;10.220;2023-07-20T00:33:16;9.48;;;2.63;;
58468;SDS011;44257;44.804;10.220;2023-07-20T00:35:42;7.53;;;3.00;;
58468;SDS011;44257;44.804;10.220;2023-07-20T00:38:08;7.22;;;2.80;;
58468;SDS011;44257;44.804;10.220;2023-07-20T00:40:40;8.77;;;2.95;;
58468;SDS011;44257;44.804;10.220;2023-07-20T00:43:06;4.82;;;2.40;;
58468;SDS011;44257;44.804;10.220;2023-07-20T00:45:33;5.57;;;2.80;;
58468;SDS011;44257;44.804;10.220;2023-07-20T00:48:01;5.78;;;2.45;;
58468;SDS011;44257;44.804;10.220;2023-07-20T00:50:29;7.63;;;2.70;;
58468;SDS011;44257;44.804;10.220;2023-07-20T00:52:56;6.47;;;3.13;;
58468;SDS011;44257;44.804;10.220;2023-07-20T00:55:22;5.88;;;2.78;;
58468;SDS011;44257;44.804;10.220;2023-07-20T00:57:49;7.10;;;3.08;;
58468;SDS011;44257;44.804;10.220;2023-07-20T01:00:16;4.43;;;2.63;;
58468;SDS011;44257;44.804;10.220;2023-07-20T01:02:43;5.85;;;2.50;;
58468;SDS011;44257;44.804;10.220;2023-07-20T01:05:09;4.47;;;3.00;;
58468;SDS011;44257;44.804;10.220;2023-07-20T01:07:55;4.65;;;2.58;;
58468;SDS011;44257;44.804;10.220;2023-07-20T01:13:05;5.50;;;3.25;;
58468;SDS011;44257;44.804;10.220;2023-07-20T01:15:35;7.88;;;3.05;;
58468;SDS011;44257;44.804;10.220;2023-07-20T01:18:01;6.25;;;3.03;;
58468;SDS011;44257;44.804;10.220;2023-07-20T01:20:29;8.48;;;3.05;;
58468;SDS011;44257;44.804;10.220;2023-07-20T01:31:24;7.07;;;3.03;;
58468;SDS011;44257;44.804;10.220;2023-07-20T01:33:54;8.48;;;2.95;;
58468;SDS011;44257;44.804;10.220;2023-07-20T01:36:23;8.35;;;3.17;;
58468;SDS011;44257;44.804;10.220;2023-07-20T01:38:51;7.13;;;3.60;;
58468;SDS011;44257;44.804;10.220;2023-07-20T01:41:18;5.28;;;3.40;;
58468;SDS011;44257;44.804;10.220;2023-07-20T01:43:44;8.68;;;4.32;;
58468;SDS011;44257;44.804;10.220;2023-07-20T01:46:11;6.60;;;3.20;;
58468;SDS011;44257;44.804;10.220;2023-07-20T01:48:37;5.47;;;3.40;;
58468;SDS011;44257;44.804;10.220;2023-07-20T01:51:02;7.70;;;3.80;;
58468;SDS011;44257;44.804;10.220;2023-07-20T01:53:28;6.10;;;3.53;;
58468;SDS011;44257;44.804;10.220;2023-07-20T01:55:54;6.90;;;3.28;;
58468;SDS011;44257;44.804;10.220;2023-07-20T01:58:21;8.18;;;3.75;;
58468;SDS011;44257;44.804;10.220;2023-07-20T02:00:47;6.97;;;4.10;;
58468;SDS011;44257;44.804;10.220;2023-07-20T02:03:13;9.50;;;4.47;;
58468;SDS011;44257;44.804;10.220;2023-07-20T02:05:39;8.50;;;4.05;;
58468;SDS011;44257;44.804;10.220;2023-07-20T02:08:08;7.75;;;3.78;;
58468;SDS011;44257;44.804;10.220;2023-07-20T02:10:35;7.70;;;4.03;;
58468;SDS011;44257;44.804;10.220;2023-07-20T02:13:00;7.63;;;3.72;;
58468;SDS011;44257;44.804;10.220;2023-07-20T02:15:26;9.18;;;3.95;;
58468;SDS011;44257;44.804;10.220;2023-07-20T02:17:54;7.70;;;4.20;;
58468;SDS011;44257;44.804;10.220;2023-07-20T02:20:20;7.05;;;3.83;;
58468;SDS011;44257;44.804;10.220;2023-07-20T02:22:46;7.70;;;4.10;;
58468;SDS011;44257;44.804;10.220;2023-07-20T02:25:12;8.13;;;3.92;;
58468;SDS011;44257;44.804;10.220;2023-07-20T02:27:38;6.18;;;4.53;;
58468;SDS011;44257;44.804;10.220;2023-07-20T02:30:04;8.23;;;4.38;;
58468;SDS011;44257;44.804;10.220;2023-07-20T02:32:31;7.57;;;4.28;;
58468;SDS011;44257;44.804;10.220;2023-07-20T02:34:57;8.43;;;4.40;;
58468;SDS011;44257;44.804;10.220;2023-07-20T02:37:23;8.18;;;4.32;;
58468;SDS011;44257;44.804;10.220;2023-07-20T02:39:50;8.45;;;4.80;;
58468;SDS011;44257;44.804;10.220;2023-07-20T02:42:15;7.85;;;4.47;;
58468;SDS011;44257;44.804;10.220;2023-07-20T02:44:41;9.02;;;4.80;;
58468;SDS011;44257;44.804;10.220;2023-07-20T02:47:07;7.18;;;4.10;;
58468;SDS011;44257;44.804;10.220;2023-07-20T02:49:33;6.40;;;4.03;;
58468;SDS011;44257;44.804;10.220;2023-07-20T02:51:59;7.00;;;4.55;;
58468;SDS011;44257;44.804;10.220;2023-07-20T02:54:25;7.22;;;4.20;;
58468;SDS011;44257;44.804;10.220;2023-07-20T02:56:51;7.93;;;4.47;;
58468;SDS011;44257;44.804;10.220;2023-07-20T02:59:16;7.13;;;4.50;;
58468;SDS011;44257;44.804;10.220;2023-07-20T03:01:42;10.27;;;4.68;;
58468;SDS011;44257;44.804;10.220;2023-07-20T03:04:08;8.60;;;3.95;;
58468;SDS011;44257;44.804;10.220;2023-07-20T03:06:36;7.32;;;4.05;;
58468;SDS011;44257;44.804;10.220;2023-07-20T03:09:02;8.30;;;4.22;;
58468;SDS011;44257;44.804;10.220;2023-07-20T03:11:31;8.68;;;4.20;;
58468;SDS011;44257;44.804;10.220;2023-07-20T03:13:57;7.75;;;4.47;;
58468;SDS011;44257;44.804;10.220;2023-07-20T03:16:23;8.00;;;4.78;;
58468;SDS011;44257;44.804;10.220;2023-07-20T03:18:51;7.20;;;4.22;;
58468;SDS011;44257;44.804;10.220;2023-07-20T03:21:17;7.63;;;3.72;;
58468;SDS011;44257;44.804;10.220;2023-07-20T03:23:43;7.18;;;4.25;;
58468;SDS011;44257;44.804;10.220;2023-07-20T03:26:10;8.45;;;3.95;;
58468;SDS011;44257;44.804;10.220;2023-07-20T03:28:36;7.28;;;3.85;;
58468;SDS011;44257;44.804;10.220;2023-07-20T03:31:03;8.65;;;4.43;;
58468;SDS011;44257;44.804;10.220;2023-07-20T03:33:32;6.80;;;4.05;;
58468;SDS011;44257;44.804;10.220;2023-07-20T03:35:59;6.93;;;4.35;;
58468;SDS011;44257;44.804;10.220;2023-07-20T03:38:25;7.38;;;4.07;;
58468;SDS011;44257;44.804;10.220;2023-07-20T03:40:55;8.50;;;4.82;;
58468;SDS011;44257;44.804;10.220;2023-07-20T03:43:23;9.32;;;4.60;;
58468;SDS011;44257;44.804;10.220;2023-07-20T03:45:50;7.65;;;4.10;;
58468;SDS011;44257;44.804;10.220;2023-07-20T03:48:17;10.38;;;4.30;;
58468;SDS011;44257;44.804;10.220;2023-07-20T03:50:44;6.78;;;4.32;;
58468;SDS011;44257;44.804;10.220;2023-07-20T03:53:11;9.80;;;4.40;;
58468;SDS011;44257;44.804;10.220;2023-07-20T03:55:37;10.35;;;4.50;;
58468;SDS011;44257;44.804;10.220;2023-07-20T03:58:03;8.43;;;3.75;;
58468;SDS011;44257;44.804;10.220;2023-07-20T04:00:29;7.80;;;4.43;;
58468;SDS011;44257;44.804;10.220;2023-07-20T04:02:54;5.85;;;3.70;;
58468;SDS011;44257;44.804;10.220;2023-07-20T04:05:21;7.78;;;4.30;;
58468;SDS011;44257;44.804;10.220;2023-07-20T04:07:47;7.97;;;4.43;;
58468;SDS011;44257;44.804;10.220;2023-07-20T04:10:12;9.82;;;4.32;;
58468;SDS011;44257;44.804;10.220;2023-07-20T04:12:38;9.70;;;4.93;;
58468;SDS011;44257;44.804;10.220;2023-07-20T04:15:04;7.63;;;4.28;;
58468;SDS011;44257;44.804;10.220;2023-07-20T04:17:32;9.40;;;4.50;;
58468;SDS011;44257;44.804;10.220;2023-07-20T04:19:58;6.32;;;4.22;;
58468;SDS011;44257;44.804;10.220;2023-07-20T04:22:24;5.72;;;3.75;;
58468;SDS011;44257;44.804;10.220;2023-07-20T04:24:49;9.38;;;4.53;;
58468;SDS011;44257;44.804;10.220;2023-07-20T04:27:15;8.27;;;4.10;;
58468;SDS011;44257;44.804;10.220;2023-07-20T04:29:42;8.60;;;4.60;;
58468;SDS011;44257;44.804;10.220;2023-07-20T04:32:07;6.22;;;3.92;;
58468;SDS011;44257;44.804;10.220;2023-07-20T04:34:35;7.63;;;4.15;;
58468;SDS011;44257;44.804;10.220;2023-07-20T04:37:03;7.80;;;4.38;;
58468;SDS011;44257;44.804;10.220;2023-07-20T04:39:30;7.60;;;3.95;;
58468;SDS011;44257;44.804;10.220;2023-07-20T04:41:57;6.75;;;4.32;;
58468;SDS011;44257;44.804;10.220;2023-07-20T04:44:24;6.75;;;4.10;;
58468;SDS011;44257;44.804;10.220;2023-07-20T04:46:49;10.23;;;4.22;;
58468;SDS011;44257;44.804;10.220;2023-07-20T04:49:15;9.52;;;4.15;;
58468;SDS011;44257;44.804;10.220;2023-07-20T04:51:43;6.00;;;3.88;;
58468;SDS011;44257;44.804;10.220;2023-07-20T04:54:10;6.75;;;3.95;;
58468;SDS011;44257;44.804;10.220;2023-07-20T04:56:37;10.80;;;4.38;;
58468;SDS011;44257;44.804;10.220;2023-07-20T04:59:06;12.07;;;5.15;;
58468;SDS011;44257;44.804;10.220;2023-07-20T05:01:31;7.90;;;4.22;;
58468;SDS011;44257;44.804;10.220;2023-07-20T05:03:57;7.88;;;4.25;;
58468;SDS011;44257;44.804;10.220;2023-07-20T05:06:23;8.98;;;4.20;;
58468;SDS011;44257;44.804;10.220;2023-07-20T05:08:49;7.03;;;4.10;;
58468;SDS011;44257;44.804;10.220;2023-07-20T05:11:15;5.95;;;4.03;;
58468;SDS011;44257;44.804;10.220;2023-07-20T05:13:41;8.07;;;3.75;;
58468;SDS011;44257;44.804;10.220;2023-07-20T05:16:07;7.93;;;4.20;;
58468;SDS011;44257;44.804;10.220;2023-07-20T05:18:33;9.77;;;4.30;;
58468;SDS011;44257;44.804;10.220;2023-07-20T05:20:59;8.65;;;4.40;;
58468;SDS011;44257;44.804;10.220;2023-07-20T05:23:25;7.38;;;3.88;;
58468;SDS011;44257;44.804;10.220;2023-07-20T05:25:56;8.30;;;4.15;;
58468;SDS011;44257;44.804;10.220;2023-07-20T05:28:23;7.53;;;4.20;;
58468;SDS011;44257;44.804;10.220;2023-07-20T05:30:50;7.10;;;4.22;;
58468;SDS011;44257;44.804;10.220;2023-07-20T05:33:22;10.85;;;4.60;;
58468;SDS011;44257;44.804;10.220;2023-07-20T05:35:48;11.73;;;4.60;;
58468;SDS011;44257;44.804;10.220;2023-07-20T05:38:13;8.10;;;4.28;;
58468;SDS011;44257;44.804;10.220;2023-07-20T05:40:40;9.00;;;4.38;;
58468;SDS011;44257;44.804;10.220;2023-07-20T05:43:07;8.10;;;3.83;;
58468;SDS011;44257;44.804;10.220;2023-07-20T05:45:33;10.10;;;4.45;;
58468;SDS011;44257;44.804;10.220;2023-07-20T05:47:58;9.18;;;4.22;;
58468;SDS011;44257;44.804;10.220;2023-07-20T05:50:24;6.70;;;4.10;;
58468;SDS011;44257;44.804;10.220;2023-07-20T05:52:53;7.68;;;3.78;;
58468;SDS011;44257;44.804;10.220;2023-07-20T05:55:20;7.22;;;3.90;;
58468;SDS011;44257;44.804;10.220;2023-07-20T05:57:46;9.48;;;3.92;;
58468;SDS011;44257;44.804;10.220;2023-07-20T06:00:13;11.38;;;4.43;;
58468;SDS011;44257;44.804;10.220;2023-07-20T06:02:41;9.68;;;3.95;;
58468;SDS011;44257;44.804;10.220;2023-07-20T06:05:08;11.60;;;4.07;;
58468;SDS011;44257;44.804;10.220;2023-07-20T06:07:35;8.30;;;4.13;;
58468;SDS011;44257;44.804;10.220;2023-07-20T06:10:02;9.32;;;4.25;;
58468;SDS011;44257;44.804;10.220;2023-07-20T06:12:28;18.58;;;4.35;;
58468;SDS011;44257;44.804;10.220;2023-07-20T06:14:53;10.43;;;4.18;;
58468;SDS011;44257;44.804;10.220;2023-07-20T06:17:19;8.35;;;3.80;;
58468;SDS011;44257;44.804;10.220;2023-07-20T06:19:46;11.00;;;3.88;;
58468;SDS011;44257;44.804;10.220;2023-07-20T06:22:11;10.57;;;3.88;;
58468;SDS011;44257;44.804;10.220;2023-07-20T06:24:37;7.28;;;3.85;;
58468;SDS011;44257;44.804;10.220;2023-07-20T06:27:03;8.90;;;4.10;;
58468;SDS011;44257;44.804;10.220;2023-07-20T06:29:30;6.95;;;4.10;;
58468;SDS011;44257;44.804;10.220;2023-07-20T06:31:56;12.55;;;4.10;;
58468;SDS011;44257;44.804;10.220;2023-07-20T06:34:22;9.70;;;4.47;;
58468;SDS011;44257;44.804;10.220;2023-07-20T06:36:48;8.55;;;4.07;;
58468;SDS011;44257;44.804;10.220;2023-07-20T06:39:14;6.07;;;3.85;;
58468;SDS011;44257;44.804;10.220;2023-07-20T06:41:40;8.10;;;3.95;;
58468;SDS011;44257;44.804;10.220;2023-07-20T06:44:06;6.05;;;3.83;;
58468;SDS011;44257;44.804;10.220;2023-07-20T06:46:33;9.98;;;4.18;;
58468;SDS011;44257;44.804;10.220;2023-07-20T06:48:59;6.82;;;3.85;;
58468;SDS011;44257;44.804;10.220;2023-07-20T06:51:24;9.13;;;4.68;;
58468;SDS011;44257;44.804;10.220;2023-07-20T06:53:50;10.82;;;5.40;;
58468;SDS011;44257;44.804;10.220;2023-07-20T06:56:16;9.73;;;5.60;;
58468;SDS011;44257;44.804;10.220;2023-07-20T06:58:42;8.95;;;5.00;;
58468;SDS011;44257;44.804;10.220;2023-07-20T07:01:08;11.20;;;5.90;;
58468;SDS011;44257;44.804;10.220;2023-07-20T07:03:34;8.98;;;5.60;;
58468;SDS011;44257;44.804;10.220;2023-07-20T07:06:00;9.80;;;5.47;;
58468;SDS011;44257;44.804;10.220;2023-07-20T07:08:26;9.02;;;5.80;;
58468;SDS011;44257;44.804;10.220;2023-07-20T07:10:52;10.63;;;5.97;;
58468;SDS011;44257;44.804;10.220;2023-07-20T07:13:19;10.27;;;5.18;;
58468;SDS011;44257;44.804;10.220;2023-07-20T07:15:44;8.60;;;4.90;;
58468;SDS011;44257;44.804;10.220;2023-07-20T07:18:11;11.68;;;5.32;;
58468;SDS011;44257;44.804;10.220;2023-07-20T07:20:37;8.48;;;5.28;;
58468;SDS011;44257;44.804;10.220;2023-07-20T07:23:03;9.93;;;5.50;;
58468;SDS011;44257;44.804;10.220;2023-07-20T07:25:28;9.70;;;5.35;;
58468;SDS011;44257;44.804;10.220;2023-07-20T07:27:56;7.95;;;4.57;;
58468;SDS011;44257;44.804;10.220;2023-07-20T07:30:22;10.85;;;5.00;;
58468;SDS011;44257;44.804;10.220;2023-07-20T07:32:48;27.48;;;7.70;;
58468;SDS011;44257;44.804;10.220;2023-07-20T07:35:14;10.15;;;5.38;;
58468;SDS011;44257;44.804;10.220;2023-07-20T07:37:40;10.80;;;4.95;;
58468;SDS011;44257;44.804;10.220;2023-07-20T07:40:06;8.68;;;4.65;;
58468;SDS011;44257;44.804;10.220;2023-07-20T07:42:33;11.60;;;5.50;;
58468;SDS011;44257;44.804;10.220;2023-07-20T07:44:59;9.75;;;4.93;;
58468;SDS011;44257;44.804;10.220;2023-07-20T07:47:25;9.48;;;5.10;;
58468;SDS011;44257;44.804;10.220;2023-07-20T07:49:51;13.38;;;5.20;;
58468;SDS011;44257;44.804;10.220;2023-07-20T07:52:16;10.60;;;5.72;;
58468;SDS011;44257;44.804;10.220;2023-07-20T07:54:43;11.00;;;5.05;;
58468;SDS011;44257;44.804;10.220;2023-07-20T07:57:09;9.07;;;4.50;;
58468;SDS011;44257;44.804;10.220;2023-07-20T07:59:35;7.03;;;4.78;;
58468;SDS011;44257;44.804;10.220;2023-07-20T08:02:03;8.10;;;4.63;;
58468;SDS011;44257;44.804;10.220;2023-07-20T08:04:30;11.38;;;5.80;;
58468;SDS011;44257;44.804;10.220;2023-07-20T08:06:56;8.77;;;5.20;;
58468;SDS011;44257;44.804;10.220;2023-07-20T08:09:22;10.50;;;4.72;;
58468;SDS011;44257;44.804;10.220;2023-07-20T08:11:48;9.95;;;4.60;;
58468;SDS011;44257;44.804;10.220;2023-07-20T08:14:15;7.25;;;4.43;;
58468;SDS011;44257;44.804;10.220;2023-07-20T08:16:41;10.45;;;4.85;;
58468;SDS011;44257;44.804;10.220;2023-07-20T08:19:06;10.68;;;5.50;;
58468;SDS011;44257;44.804;10.220;2023-07-20T08:21:32;9.77;;;4.82;;
58468;SDS011;44257;44.804;10.220;2023-07-20T08:23:58;10.52;;;4.38;;
58468;SDS011;44257;44.804;10.220;2023-07-20T08:26:24;10.38;;;4.93;;
58468;SDS011;44257;44.804;10.220;2023-07-20T08:28:50;12.57;;;6.15;;
58468;SDS011;44257;44.804;10.220;2023-07-20T08:31:15;9.70;;;4.93;;
58468;SDS011;44257;44.804;10.220;2023-07-20T08:33:41;11.15;;;5.28;;
58468;SDS011;44257;44.804;10.220;2023-07-20T08:36:08;7.47;;;4.32;;
58468;SDS011;44257;44.804;10.220;2023-07-20T08:38:34;9.23;;;4.65;;
58468;SDS011;44257;44.804;10.220;2023-07-20T08:40:59;6.85;;;4.50;;
58468;SDS011;44257;44.804;10.220;2023-07-20T08:43:27;7.40;;;4.40;;
58468;SDS011;44257;44.804;10.220;2023-07-20T08:45:54;10.20;;;5.22;;
58468;SDS011;44257;44.804;10.220;2023-07-20T08:48:21;10.45;;;5.40;;
58468;SDS011;44257;44.804;10.220;2023-07-20T08:50:51;7.97;;;4.57;;
58468;SDS011;44257;44.804;10.220;2023-07-20T08:53:21;7.13;;;4.47;;
58468;SDS011;44257;44.804;10.220;2023-07-20T08:55:48;8.20;;;4.35;;
58468;SDS011;44257;44.804;10.220;2023-07-20T08:58:16;11.95;;;5.13;;
58468;SDS011;44257;44.804;10.220;2023-07-20T09:00:43;8.40;;;4.05;;
58468;SDS011;44257;44.804;10.220;2023-07-20T09:03:10;11.30;;;4.88;;
58468;SDS011;44257;44.804;10.220;2023-07-20T09:05:36;8.93;;;5.43;;
58468;SDS011;44257;44.804;10.220;2023-07-20T09:08:04;7.35;;;4.43;;
58468;SDS011;44257;44.804;10.220;2023-07-20T09:10:30;7.70;;;4.50;;
58468;SDS011;44257;44.804;10.220;2023-07-20T09:12:56;7.80;;;4.35;;
58468;SDS011;44257;44.804;10.220;2023-07-20T09:15:22;7.53;;;4.40;;
58468;SDS011;44257;44.804;10.220;2023-07-20T09:17:48;11.32;;;4.75;;
58468;SDS011;44257;44.804;10.220;2023-07-20T09:20:16;8.10;;;4.53;;
58468;SDS011;44257;44.804;10.220;2023-07-20T09:22:43;12.65;;;4.75;;
58468;SDS011;44257;44.804;10.220;2023-07-20T09:25:13;8.60;;;4.25;;
58468;SDS011;44257;44.804;10.220;2023-07-20T09:27:44;7.82;;;5.43;;
58468;SDS011;44257;44.804;10.220;2023-07-20T09:30:11;11.23;;;5.00;;
58468;SDS011;44257;44.804;10.220;2023-07-20T09:32:43;8.80;;;4.60;;
58468;SDS011;44257;44.804;10.220;2023-07-20T09:35:12;7.35;;;4.70;;
58468;SDS011;44257;44.804;10.220;2023-07-20T09:38:00;7.32;;;4.53;;
58468;SDS011;44257;44.804;10.220;2023-07-20T09:40:27;8.60;;;4.45;;
58468;SDS011;44257;44.804;10.220;2023-07-20T09:42:54;8.30;;;4.03;;
58468;SDS011;44257;44.804;10.220;2023-07-20T09:45:28;7.32;;;4.18;;
58468;SDS011;44257;44.804;10.220;2023-07-20T09:48:15;6.80;;;4.88;;
58468;SDS011;44257;44.804;10.220;2023-07-20T09:50:42;7.68;;;4.10;;
58468;SDS011;44257;44.804;10.220;2023-07-20T09:53:18;8.80;;;5.00;;
58468;SDS011;44257;44.804;10.220;2023-07-20T09:55:45;8.75;;;4.75;;
58468;SDS011;44257;44.804;10.220;2023-07-20T09:58:13;7.78;;;4.55;;
58468;SDS011;44257;44.804;10.220;2023-07-20T10:00:39;14.25;;;5.72;;
58468;SDS011;44257;44.804;10.220;2023-07-20T10:03:08;10.00;;;4.80;;
58468;SDS011;44257;44.804;10.220;2023-07-20T10:05:39;10.10;;;5.13;;
58468;SDS011;44257;44.804;10.220;2023-07-20T10:08:11;7.53;;;4.40;;
58468;SDS011;44257;44.804;10.220;2023-07-20T10:10:38;7.60;;;3.90;;
58468;SDS011;44257;44.804;10.220;2023-07-20T10:13:09;7.20;;;4.05;;
58468;SDS011;44257;44.804;10.220;2023-07-20T10:21:17;7.47;;;4.22;;
58468;SDS011;44257;44.804;10.220;2023-07-20T10:23:45;8.95;;;4.20;;
58468;SDS011;44257;44.804;10.220;2023-07-20T10:26:11;9.27;;;4.68;;
58468;SDS011;44257;44.804;10.220;2023-07-20T10:28:38;7.60;;;4.35;;
58468;SDS011;44257;44.804;10.220;2023-07-20T10:31:05;9.68;;;4.45;;
58468;SDS011;44257;44.804;10.220;2023-07-20T10:33:33;8.45;;;4.90;;
58468;SDS011;44257;44.804;10.220;2023-07-20T10:36:03;9.70;;;4.70;;
58468;SDS011;44257;44.804;10.220;2023-07-20T10:41:50;9.10;;;4.57;;
58468;SDS011;44257;44.804;10.220;2023-07-20T10:44:04;9.23;;;4.50;;
58468;SDS011;44257;44.804;10.220;2023-07-20T10:49:08;9.02;;;4.88;;
58468;SDS011;44257;44.804;10.220;2023-07-20T10:51:42;10.35;;;4.45;;
58468;SDS011;44257;44.804;10.220;2023-07-20T10:54:33;10.15;;;4.85;;
58468;SDS011;44257;44.804;10.220;2023-07-20T10:56:56;10.68;;;5.38;;
58468;SDS011;44257;44.804;10.220;2023-07-20T11:01:48;9.93;;;5.03;;
58468;SDS011;44257;44.804;10.220;2023-07-20T11:04:15;8.07;;;5.43;;
58468;SDS011;44257;44.804;10.220;2023-07-20T11:06:43;8.70;;;5.18;;
58468;SDS011;44257;44.804;10.220;2023-07-20T11:09:10;8.60;;;5.43;;
58468;SDS011;44257;44.804;10.220;2023-07-20T11:11:44;12.40;;;4.70;;
58468;SDS011;44257;44.804;10.220;2023-07-20T11:14:22;9.93;;;4.90;;
58468;SDS011;44257;44.804;10.220;2023-07-20T11:16:49;7.22;;;5.30;;
58468;SDS011;44257;44.804;10.220;2023-07-20T11:19:20;8.52;;;5.10;;
58468;SDS011;44257;44.804;10.220;2023-07-20T11:21:54;8.25;;;4.95;;
58468;SDS011;44257;44.804;10.220;2023-07-20T11:24:21;6.53;;;4.55;;
58468;SDS011;44257;44.804;10.220;2023-07-20T11:29:20;7.55;;;4.88;;
58468;SDS011;44257;44.804;10.220;2023-07-20T11:31:48;8.75;;;4.63;;
58468;SDS011;44257;44.804;10.220;2023-07-20T11:34:15;10.52;;;4.97;;
58468;SDS011;44257;44.804;10.220;2023-07-20T11:36:46;9.43;;;5.20;;
58468;SDS011;44257;44.804;10.220;2023-07-20T11:39:14;9.02;;;5.13;;
58468;SDS011;44257;44.804;10.220;2023-07-20T11:41:51;7.28;;;4.75;;
58468;SDS011;44257;44.804;10.220;2023-07-20T11:44:19;9.30;;;4.97;;
58468;SDS011;44257;44.804;10.220;2023-07-20T11:46:59;9.65;;;5.38;;
58468;SDS011;44257;44.804;10.220;2023-07-20T11:49:41;8.10;;;4.95;;
58468;SDS011;44257;44.804;10.220;2023-07-20T11:52:08;6.97;;;4.75;;
58468;SDS011;44257;44.804;10.220;2023-07-20T11:54:37;7.20;;;4.57;;
58468;SDS011;44257;44.804;10.220;2023-07-20T11:57:04;9.68;;;5.85;;
58468;SDS011;44257;44.804;10.220;2023-07-20T11:59:31;9.88;;;5.45;;
58468;SDS011;44257;44.804;10.220;2023-07-20T12:01:58;7.28;;;5.10;;
58468;SDS011;44257;44.804;10.220;2023-07-20T12:04:28;7.93;;;5.45;;
58468;SDS011;44257;44.804;10.220;2023-07-20T12:06:56;8.00;;;5.10;;
58468;SDS011;44257;44.804;10.220;2023-07-20T12:09:22;11.63;;;5.57;;
58468;SDS011;44257;44.804;10.220;2023-07-20T12:11:48;11.77;;;6.05;;
58468;SDS011;44257;44.804;10.220;2023-07-20T12:14:15;9.13;;;5.35;;
58468;SDS011;44257;44.804;10.220;2023-07-20T12:16:41;10.32;;;5.90;;
58468;SDS011;44257;44.804;10.220;2023-07-20T12:19:11;11.45;;;5.25;;
58468;SDS011;44257;44.804;10.220;2023-07-20T12:21:39;9.40;;;6.18;;
58468;SDS011;44257;44.804;10.220;2023-07-20T12:24:07;11.35;;;5.82;;
58468;SDS011;44257;44.804;10.220;2023-07-20T12:26:34;8.90;;;5.15;;
58468;SDS011;44257;44.804;10.220;2023-07-20T12:29:00;8.63;;;4.75;;
58468;SDS011;44257;44.804;10.220;2023-07-20T12:31:26;13.15;;;5.40;;
58468;SDS011;44257;44.804;10.220;2023-07-20T12:33:53;9.70;;;4.97;;
58468;SDS011;44257;44.804;10.220;2023-07-20T12:36:22;9.77;;;5.40;;
58468;SDS011;44257;44.804;10.220;2023-07-20T12:38:48;8.27;;;5.38;;
58468;SDS011;44257;44.804;10.220;2023-07-20T12:41:14;11.63;;;5.57;;
58468;SDS011;44257;44.804;10.220;2023-07-20T12:43:41;8.35;;;5.40;;
58468;SDS011;44257;44.804;10.220;2023-07-20T12:46:07;9.18;;;5.32;;
58468;SDS011;44257;44.804;10.220;2023-07-20T12:48:33;9.07;;;5.38;;
58468;SDS011;44257;44.804;10.220;2023-07-20T12:51:02;10.93;;;5.57;;
58468;SDS011;44257;44.804;10.220;2023-07-20T12:53:28;10.10;;;5.50;;
58468;SDS011;44257;44.804;10.220;2023-07-20T12:55:56;10.43;;;6.03;;
58468;SDS011;44257;44.804;10.220;2023-07-20T12:58:22;8.18;;;4.93;;
58468;SDS011;44257;44.804;10.220;2023-07-20T13:00:49;10.68;;;5.22;;
58468;SDS011;44257;44.804;10.220;2023-07-20T13:03:14;11.95;;;5.53;;
58468;SDS011;44257;44.804;10.220;2023-07-20T13:05:41;7.97;;;4.93;;
58468;SDS011;44257;44.804;10.220;2023-07-20T13:08:07;10.77;;;5.22;;
58468;SDS011;44257;44.804;10.220;2023-07-20T13:10:34;12.07;;;5.82;;
58468;SDS011;44257;44.804;10.220;2023-07-20T13:13:00;8.40;;;5.15;;
58468;SDS011;44257;44.804;10.220;2023-07-20T13:15:30;7.70;;;5.05;;
58468;SDS011;44257;44.804;10.220;2023-07-20T13:17:57;9.80;;;5.18;;
58468;SDS011;44257;44.804;10.220;2023-07-20T13:20:24;7.57;;;4.90;;
58468;SDS011;44257;44.804;10.220;2023-07-20T13:22:51;14.30;;;5.55;;
58468;SDS011;44257;44.804;10.220;2023-07-20T13:25:17;6.90;;;5.30;;
58468;SDS011;44257;44.804;10.220;2023-07-20T13:27:44;9.50;;;5.78;;
58468;SDS011;44257;44.804;10.220;2023-07-20T13:30:10;10.30;;;5.35;;
58468;SDS011;44257;44.804;10.220;2023-07-20T13:32:42;9.95;;;5.60;;
58468;SDS011;44257;44.804;10.220;2023-07-20T13:35:09;12.18;;;5.95;;
58468;SDS011;44257;44.804;10.220;2023-07-20T13:37:35;8.50;;;5.35;;
58468;SDS011;44257;44.804;10.220;2023-07-20T13:40:01;10.55;;;5.53;;
58468;SDS011;44257;44.804;10.220;2023-07-20T13:42:30;7.68;;;4.85;;
58468;SDS011;44257;44.804;10.220;2023-07-20T13:44:56;8.82;;;5.38;;
58468;SDS011;44257;44.804;10.220;2023-07-20T13:47:21;11.18;;;5.53;;
58468;SDS011;44257;44.804;10.220;2023-07-20T13:49:47;8.20;;;5.30;;
58468;SDS011;44257;44.804;10.220;2023-07-20T13:52:13;10.55;;;5.70;;
58468;SDS011;44257;44.804;10.220;2023-07-20T13:54:39;7.47;;;4.95;;
58468;SDS011;44257;44.804;10.220;2023-07-20T13:57:05;7.93;;;4.72;;
58468;SDS011;44257;44.804;10.220;2023-07-20T13:59:31;13.35;;;5.18;;
58468;SDS011;44257;44.804;10.220;2023-07-20T14:01:57;7.70;;;5.10;;
58468;SDS011;44257;44.804;10.220;2023-07-20T14:04:22;8.45;;;5.40;;
58468;SDS011;44257;44.804;10.220;2023-07-20T14:06:48;10.18;;;5.32;;
58468;SDS011;44257;44.804;10.220;2023-07-20T14:09:15;8.43;;;4.88;;
58468;SDS011;44257;44.804;10.220;2023-07-20T14:11:41;11.45;;;5.95;;
58468;SDS011;44257;44.804;10.220;2023-07-20T14:14:06;9.70;;;4.97;;
58468;SDS011;44257;44.804;10.220;2023-07-20T14:16:32;9.27;;;5.68;;
58468;SDS011;44257;44.804;10.220;2023-07-20T14:18:58;8.75;;;5.70;;
58468;SDS011;44257;44.804;10.220;2023-07-20T14:21:24;8.63;;;5.07;;
58468;SDS011;44257;44.804;10.220;2023-07-20T14:23:51;9.10;;;5.75;;
58468;SDS011;44257;44.804;10.220;2023-07-20T14:26:20;12.05;;;5.72;;
58468;SDS011;44257;44.804;10.220;2023-07-20T14:28:46;8.77;;;4.82;;
58468;SDS011;44257;44.804;10.220;2023-07-20T14:31:12;10.68;;;5.10;;
58468;SDS011;44257;44.804;10.220;2023-07-20T14:33:38;9.68;;;5.60;;
58468;SDS011;44257;44.804;10.220;2023-07-20T14:36:04;11.30;;;5.25;;
58468;SDS011;44257;44.804;10.220;2023-07-20T14:38:31;7.95;;;5.07;;
58468;SDS011;44257;44.804;10.220;2023-07-20T14:40:59;8.80;;;4.70;;
58468;SDS011;44257;44.804;10.220;2023-07-20T14:43:24;10.60;;;6.07;;
58468;SDS011;44257;44.804;10.220;2023-07-20T14:45:50;8.18;;;5.20;;
58468;SDS011;44257;44.804;10.220;2023-07-20T14:48:16;8.40;;;5.03;;
58468;SDS011;44257;44.804;10.220;2023-07-20T14:50:42;9.65;;;5.13;;
58468;SDS011;44257;44.804;10.220;2023-07-20T14:53:11;10.45;;;5.07;;
58468;SDS011;44257;44.804;10.220;2023-07-20T14:55:37;10.27;;;5.65;;
58468;SDS011;44257;44.804;10.220;2023-07-20T14:58:03;8.85;;;5.13;;